sensor_id;sensor_type;location;lat;lon;timestamp;P1;durP1;ratioP1;P2;durP2;ratioP2
20535;SDS011;10426;49.420;8.390;2023-04-15T00:00:56;6.38;;;3.20;;
20535;SDS011;10426;49.420;8.390;2023-04-15T00:03:22;3.97;;;3.38;;
20535;SDS011;10426;49.420;8.390;2023-04-15T00:05:50;4.38;;;3.25;;
20535;SDS011;10426;49.420;8.390;2023-04-15T00:08:17;5.50;;;3.20;;
20535;SDS011;10426;49.420;8.390;2023-04-15T00:10:43;4.87;;;3.10;;
20535;SDS011;10426;49.420;8.390;2023-04-15T00:13:10;4.97;;;3.22;;
20535;SDS011;10426;49.420;8.390;2023-04-15T00:15:37;4.60;;;2.88;;
20535;SDS011;10426;49.420;8.390;2023-04-15T00:18:04;4.32;;;2.90;;
20535;SDS011;10426;49.420;8.390;2023-04-15T00:20:31;6.93;;;2.80;;
20535;SDS011;10426;49.420;8.390;2023-04-15T00:23:00;3.23;;;2.70;;
20535;SDS011;10426;49.420;8.390;2023-04-15T00:25:27;5.70;;;3.00;;
20535;SDS011;10426;49.420;8.390;2023-04-15T00:27:53;4.88;;;2.78;;
20535;SDS011;10426;49.420;8.390;2023-04-15T00:30:20;4.18;;;2.90;;
20535;SDS011;10426;49.420;8.390;2023-04-15T00:32:48;5.35;;;3.10;;
20535;SDS011;10426;49.420;8.390;2023-04-15T00:35:14;6.38;;;3.08;;
20535;SDS011;10426;49.420;8.390;2023-04-15T00:37:41;4.13;;;2.80;;
20535;SDS011;10426;49.420;8.390;2023-04-15T00:40:10;3.83;;;2.80;;
20535;SDS011;10426;49.420;8.390;2023-04-15T00:42:37;4.57;;;2.83;;
20535;SDS011;10426;49.420;8.390;2023-04-15T00:45:04;4.43;;;2.85;;
20535;SDS011;10426;49.420;8.390;2023-04-15T00:47:33;4.88;;;3.00;;
20535;SDS011;10426;49.420;8.390;2023-04-15T00:50:01;3.13;;;2.80;;
20535;SDS011;10426;49.420;8.390;2023-04-15T00:52:28;3.42;;;3.08;;
20535;SDS011;10426;49.420;8.390;2023-04-15T00:54:54;3.58;;;2.72;;
20535;SDS011;10426;49.420;8.390;2023-04-15T00:57:23;4.53;;;2.90;;
20535;SDS011;10426;49.420;8.390;2023-04-15T00:59:50;3.88;;;2.90;;
20535;SDS011;10426;49.420;8.390;2023-04-15T01:02:18;4.55;;;2.95;;
20535;SDS011;10426;49.420;8.390;2023-04-15T01:04:44;4.25;;;2.55;;
20535;SDS011;10426;49.420;8.390;2023-04-15T01:07:11;4.47;;;3.10;;
20535;SDS011;10426;49.420;8.390;2023-04-15T01:09:38;3.80;;;2.80;;
20535;SDS011;10426;49.420;8.390;2023-04-15T01:12:05;4.88;;;3.10;;
20535;SDS011;10426;49.420;8.390;2023-04-15T01:14:34;3.50;;;2.80;;
20535;SDS011;10426;49.420;8.390;2023-04-15T01:17:01;4.00;;;2.88;;
20535;SDS011;10426;49.420;8.390;2023-04-15T01:19:27;2.90;;;2.50;;
20535;SDS011;10426;49.420;8.390;2023-04-15T01:21:54;5.07;;;3.00;;
20535;SDS011;10426;49.420;8.390;2023-04-15T01:24:22;3.08;;;2.70;;
20535;SDS011;10426;49.420;8.390;2023-04-15T01:26:51;4.40;;;2.70;;
20535;SDS011;10426;49.420;8.390;2023-04-15T01:29:17;3.92;;;2.67;;
20535;SDS011;10426;49.420;8.390;2023-04-15T01:31:48;5.15;;;2.85;;
20535;SDS011;10426;49.420;8.390;2023-04-15T01:34:15;3.53;;;2.58;;
20535;SDS011;10426;49.420;8.390;2023-04-15T01:36:41;3.05;;;2.80;;
20535;SDS011;10426;49.420;8.390;2023-04-15T01:39:08;3.13;;;2.80;;
20535;SDS011;10426;49.420;8.390;2023-04-15T01:41:34;3.63;;;2.60;;
20535;SDS011;10426;49.420;8.390;2023-04-15T01:44:02;3.60;;;3.00;;
20535;SDS011;10426;49.420;8.390;2023-04-15T01:46:29;6.05;;;3.20;;
20535;SDS011;10426;49.420;8.390;2023-04-15T01:48:56;4.20;;;3.00;;
20535;SDS011;10426;49.420;8.390;2023-04-15T01:51:23;3.10;;;2.80;;
20535;SDS011;10426;49.420;8.390;2023-04-15T01:53:50;3.50;;;2.70;;
20535;SDS011;10426;49.420;8.390;2023-04-15T01:56:16;3.40;;;2.97;;
20535;SDS011;10426;49.420;8.390;2023-04-15T01:58:43;3.63;;;2.90;;
20535;SDS011;10426;49.420;8.390;2023-04-15T02:01:11;5.73;;;2.73;;
20535;SDS011;10426;49.420;8.390;2023-04-15T02:03:37;3.50;;;2.93;;
20535;SDS011;10426;49.420;8.390;2023-04-15T02:06:04;3.50;;;3.10;;
20535;SDS011;10426;49.420;8.390;2023-04-15T02:08:31;3.08;;;2.80;;
20535;SDS011;10426;49.420;8.390;2023-04-15T02:10:58;4.38;;;2.80;;
20535;SDS011;10426;49.420;8.390;2023-04-15T02:13:25;5.35;;;3.35;;
20535;SDS011;10426;49.420;8.390;2023-04-15T02:15:53;3.83;;;2.90;;
20535;SDS011;10426;49.420;8.390;2023-04-15T02:18:21;3.00;;;2.70;;
20535;SDS011;10426;49.420;8.390;2023-04-15T02:20:49;4.05;;;3.13;;
20535;SDS011;10426;49.420;8.390;2023-04-15T02:23:16;3.47;;;3.17;;
20535;SDS011;10426;49.420;8.390;2023-04-15T02:25:43;3.47;;;3.17;;
20535;SDS011;10426;49.420;8.390;2023-04-15T02:28:10;3.55;;;3.25;;
20535;SDS011;10426;49.420;8.390;2023-04-15T02:30:36;4.40;;;3.10;;
20535;SDS011;10426;49.420;8.390;2023-04-15T02:33:05;3.73;;;3.03;;
20535;SDS011;10426;49.420;8.390;2023-04-15T02:35:33;4.32;;;2.92;;
20535;SDS011;10426;49.420;8.390;2023-04-15T02:38:02;4.40;;;3.20;;
20535;SDS011;10426;49.420;8.390;2023-04-15T02:40:29;5.43;;;3.50;;
20535;SDS011;10426;49.420;8.390;2023-04-15T02:42:55;7.33;;;3.83;;
20535;SDS011;10426;49.420;8.390;2023-04-15T02:45:22;4.88;;;3.47;;
20535;SDS011;10426;49.420;8.390;2023-04-15T02:47:51;5.22;;;3.42;;
20535;SDS011;10426;49.420;8.390;2023-04-15T02:50:18;4.22;;;3.30;;
20535;SDS011;10426;49.420;8.390;2023-04-15T02:52:46;3.53;;;3.00;;
20535;SDS011;10426;49.420;8.390;2023-04-15T02:55:13;4.40;;;3.20;;
20535;SDS011;10426;49.420;8.390;2023-04-15T02:57:40;3.35;;;2.97;;
20535;SDS011;10426;49.420;8.390;2023-04-15T03:00:07;4.43;;;3.25;;
20535;SDS011;10426;49.420;8.390;2023-04-15T03:02:35;4.35;;;3.00;;
20535;SDS011;10426;49.420;8.390;2023-04-15T03:05:02;4.78;;;3.10;;
20535;SDS011;10426;49.420;8.390;2023-04-15T03:07:30;4.72;;;3.03;;
20535;SDS011;10426;49.420;8.390;2023-04-15T03:09:58;3.53;;;2.60;;
20535;SDS011;10426;49.420;8.390;2023-04-15T03:12:24;3.90;;;2.70;;
20535;SDS011;10426;49.420;8.390;2023-04-15T03:14:51;4.05;;;2.78;;
20535;SDS011;10426;49.420;8.390;2023-04-15T03:17:18;4.00;;;2.75;;
20535;SDS011;10426;49.420;8.390;2023-04-15T03:19:44;3.95;;;2.90;;
20535;SDS011;10426;49.420;8.390;2023-04-15T03:22:11;3.38;;;2.97;;
20535;SDS011;10426;49.420;8.390;2023-04-15T03:24:38;3.73;;;3.20;;
20535;SDS011;10426;49.420;8.390;2023-04-15T03:27:06;3.20;;;2.80;;
20535;SDS011;10426;49.420;8.390;2023-04-15T03:29:32;3.40;;;3.03;;
20535;SDS011;10426;49.420;8.390;2023-04-15T03:31:59;3.40;;;3.10;;
20535;SDS011;10426;49.420;8.390;2023-04-15T03:34:26;3.58;;;3.28;;
20535;SDS011;10426;49.420;8.390;2023-04-15T03:36:52;6.32;;;3.53;;
20535;SDS011;10426;49.420;8.390;2023-04-15T03:39:19;3.63;;;3.30;;
20535;SDS011;10426;49.420;8.390;2023-04-15T03:41:45;4.43;;;3.55;;
20535;SDS011;10426;49.420;8.390;2023-04-15T03:44:13;5.20;;;3.60;;
20535;SDS011;10426;49.420;8.390;2023-04-15T03:46:40;4.67;;;3.60;;
20535;SDS011;10426;49.420;8.390;2023-04-15T03:49:07;6.50;;;3.65;;
20535;SDS011;10426;49.420;8.390;2023-04-15T03:51:34;4.82;;;3.85;;
20535;SDS011;10426;49.420;8.390;2023-04-15T03:54:00;4.70;;;3.97;;
20535;SDS011;10426;49.420;8.390;2023-04-15T03:56:27;5.78;;;3.88;;
20535;SDS011;10426;49.420;8.390;2023-04-15T03:58:54;4.45;;;3.40;;
20535;SDS011;10426;49.420;8.390;2023-04-15T04:01:22;4.50;;;3.40;;
20535;SDS011;10426;49.420;8.390;2023-04-15T04:03:49;5.07;;;3.40;;
20535;SDS011;10426;49.420;8.390;2023-04-15T04:06:15;3.80;;;3.40;;
20535;SDS011;10426;49.420;8.390;2023-04-15T04:08:42;4.07;;;3.22;;
20535;SDS011;10426;49.420;8.390;2023-04-15T04:11:09;4.55;;;3.55;;
20535;SDS011;10426;49.420;8.390;2023-04-15T04:13:35;4.43;;;3.65;;
20535;SDS011;10426;49.420;8.390;2023-04-15T04:16:02;4.40;;;3.67;;
20535;SDS011;10426;49.420;8.390;2023-04-15T04:18:31;4.70;;;3.50;;
20535;SDS011;10426;49.420;8.390;2023-04-15T04:20:57;3.60;;;3.17;;
20535;SDS011;10426;49.420;8.390;2023-04-15T04:23:24;4.97;;;3.63;;
20535;SDS011;10426;49.420;8.390;2023-04-15T04:25:51;4.88;;;3.47;;
20535;SDS011;10426;49.420;8.390;2023-04-15T04:28:18;3.83;;;3.40;;
20535;SDS011;10426;49.420;8.390;2023-04-15T04:30:44;3.88;;;3.28;;
20535;SDS011;10426;49.420;8.390;2023-04-15T04:33:11;4.15;;;3.42;;
20535;SDS011;10426;49.420;8.390;2023-04-15T04:35:39;3.93;;;3.40;;
20535;SDS011;10426;49.420;8.390;2023-04-15T04:38:05;3.53;;;3.22;;
20535;SDS011;10426;49.420;8.390;2023-04-15T04:40:32;4.43;;;3.58;;
20535;SDS011;10426;49.420;8.390;2023-04-15T04:42:59;6.45;;;3.65;;
20535;SDS011;10426;49.420;8.390;2023-04-15T04:45:26;4.60;;;3.35;;
20535;SDS011;10426;49.420;8.390;2023-04-15T04:47:52;4.18;;;3.25;;
20535;SDS011;10426;49.420;8.390;2023-04-15T04:50:19;4.15;;;3.70;;
20535;SDS011;10426;49.420;8.390;2023-04-15T04:52:47;5.18;;;3.50;;
20535;SDS011;10426;49.420;8.390;2023-04-15T04:55:13;3.70;;;3.35;;
20535;SDS011;10426;49.420;8.390;2023-04-15T04:57:40;4.70;;;3.30;;
20535;SDS011;10426;49.420;8.390;2023-04-15T05:00:07;4.83;;;3.40;;
20535;SDS011;10426;49.420;8.390;2023-04-15T05:02:34;5.47;;;3.15;;
20535;SDS011;10426;49.420;8.390;2023-04-15T05:05:01;5.55;;;3.58;;
20535;SDS011;10426;49.420;8.390;2023-04-15T05:07:27;4.30;;;3.67;;
20535;SDS011;10426;49.420;8.390;2023-04-15T05:09:55;4.72;;;3.30;;
20535;SDS011;10426;49.420;8.390;2023-04-15T05:12:22;4.85;;;3.85;;
20535;SDS011;10426;49.420;8.390;2023-04-15T05:14:48;5.15;;;3.50;;
20535;SDS011;10426;49.420;8.390;2023-04-15T05:17:15;3.80;;;3.40;;
20535;SDS011;10426;49.420;8.390;2023-04-15T05:19:41;4.43;;;3.80;;
20535;SDS011;10426;49.420;8.390;2023-04-15T05:22:08;4.97;;;3.30;;
20535;SDS011;10426;49.420;8.390;2023-04-15T05:24:35;4.10;;;3.67;;
20535;SDS011;10426;49.420;8.390;2023-04-15T05:27:03;5.47;;;3.80;;
20535;SDS011;10426;49.420;8.390;2023-04-15T05:29:29;4.55;;;3.85;;
20535;SDS011;10426;49.420;8.390;2023-04-15T05:31:56;4.13;;;3.42;;
20535;SDS011;10426;49.420;8.390;2023-04-15T05:34:23;5.95;;;3.50;;
20535;SDS011;10426;49.420;8.390;2023-04-15T05:36:49;4.67;;;3.30;;
20535;SDS011;10426;49.420;8.390;2023-04-15T05:39:16;3.78;;;3.38;;
20535;SDS011;10426;49.420;8.390;2023-04-15T05:41:43;5.30;;;3.80;;
20535;SDS011;10426;49.420;8.390;2023-04-15T05:44:11;5.68;;;3.40;;
20535;SDS011;10426;49.420;8.390;2023-04-15T05:46:38;4.27;;;3.80;;
20535;SDS011;10426;49.420;8.390;2023-04-15T05:49:04;5.30;;;3.63;;
20535;SDS011;10426;49.420;8.390;2023-04-15T05:51:31;4.35;;;3.50;;
20535;SDS011;10426;49.420;8.390;2023-04-15T05:53:58;6.55;;;3.60;;
20535;SDS011;10426;49.420;8.390;2023-04-15T05:56:24;4.57;;;3.60;;
20535;SDS011;10426;49.420;8.390;2023-04-15T05:58:51;5.60;;;3.45;;
20535;SDS011;10426;49.420;8.390;2023-04-15T06:01:19;4.97;;;3.72;;
20535;SDS011;10426;49.420;8.390;2023-04-15T06:03:46;6.07;;;3.95;;
20535;SDS011;10426;49.420;8.390;2023-04-15T06:06:13;6.60;;;3.80;;
20535;SDS011;10426;49.420;8.390;2023-04-15T06:08:39;6.85;;;4.15;;
20535;SDS011;10426;49.420;8.390;2023-04-15T06:11:06;6.88;;;4.15;;
20535;SDS011;10426;49.420;8.390;2023-04-15T06:13:32;6.10;;;4.50;;
20535;SDS011;10426;49.420;8.390;2023-04-15T06:15:59;9.48;;;4.45;;
20535;SDS011;10426;49.420;8.390;2023-04-15T06:18:27;5.57;;;4.18;;
20535;SDS011;10426;49.420;8.390;2023-04-15T06:20:54;6.10;;;4.20;;
20535;SDS011;10426;49.420;8.390;2023-04-15T06:23:21;4.97;;;4.25;;
20535;SDS011;10426;49.420;8.390;2023-04-15T06:25:48;5.45;;;4.25;;
20535;SDS011;10426;49.420;8.390;2023-04-15T06:28:14;7.13;;;4.60;;
20535;SDS011;10426;49.420;8.390;2023-04-15T06:30:41;6.15;;;4.38;;
20535;SDS011;10426;49.420;8.390;2023-04-15T06:33:07;7.28;;;4.63;;
20535;SDS011;10426;49.420;8.390;2023-04-15T06:35:36;6.28;;;4.57;;
20535;SDS011;10426;49.420;8.390;2023-04-15T06:38:03;7.00;;;4.90;;
20535;SDS011;10426;49.420;8.390;2023-04-15T06:40:30;5.25;;;4.75;;
20535;SDS011;10426;49.420;8.390;2023-04-15T06:42:57;5.20;;;4.70;;
20535;SDS011;10426;49.420;8.390;2023-04-15T06:45:23;5.47;;;4.73;;
20535;SDS011;10426;49.420;8.390;2023-04-15T06:47:50;7.25;;;5.30;;
20535;SDS011;10426;49.420;8.390;2023-04-15T06:50:17;6.82;;;5.05;;
20535;SDS011;10426;49.420;8.390;2023-04-15T06:52:44;5.35;;;4.85;;
20535;SDS011;10426;49.420;8.390;2023-04-15T06:55:11;6.60;;;4.93;;
20535;SDS011;10426;49.420;8.390;2023-04-15T06:57:39;5.93;;;4.90;;
20535;SDS011;10426;49.420;8.390;2023-04-15T07:00:06;6.10;;;5.22;;
20535;SDS011;10426;49.420;8.390;2023-04-15T07:02:35;5.93;;;4.90;;
20535;SDS011;10426;49.420;8.390;2023-04-15T07:05:03;6.72;;;5.30;;
20535;SDS011;10426;49.420;8.390;2023-04-15T07:07:30;6.32;;;5.10;;
20535;SDS011;10426;49.420;8.390;2023-04-15T07:09:58;7.57;;;5.03;;
20535;SDS011;10426;49.420;8.390;2023-04-15T07:12:26;7.38;;;4.60;;
20535;SDS011;10426;49.420;8.390;2023-04-15T07:14:53;5.30;;;4.80;;
20535;SDS011;10426;49.420;8.390;2023-04-15T07:17:20;5.63;;;4.60;;
20535;SDS011;10426;49.420;8.390;2023-04-15T07:19:46;5.30;;;4.80;;
20535;SDS011;10426;49.420;8.390;2023-04-15T07:22:13;6.53;;;4.82;;
20535;SDS011;10426;49.420;8.390;2023-04-15T07:24:40;5.95;;;4.60;;
20535;SDS011;10426;49.420;8.390;2023-04-15T07:27:08;5.27;;;4.60;;
20535;SDS011;10426;49.420;8.390;2023-04-15T07:29:35;6.68;;;5.10;;
20535;SDS011;10426;49.420;8.390;2023-04-15T07:32:01;9.07;;;5.15;;
20535;SDS011;10426;49.420;8.390;2023-04-15T07:34:28;4.78;;;4.30;;
20535;SDS011;10426;49.420;8.390;2023-04-15T07:36:55;5.95;;;5.05;;
20535;SDS011;10426;49.420;8.390;2023-04-15T07:39:21;7.57;;;5.18;;
20535;SDS011;10426;49.420;8.390;2023-04-15T07:41:48;7.50;;;5.00;;
20535;SDS011;10426;49.420;8.390;2023-04-15T07:44:16;6.25;;;4.88;;
20535;SDS011;10426;49.420;8.390;2023-04-15T07:46:42;7.43;;;5.05;;
20535;SDS011;10426;49.420;8.390;2023-04-15T07:49:09;6.38;;;5.25;;
20535;SDS011;10426;49.420;8.390;2023-04-15T07:51:36;5.83;;;4.90;;
20535;SDS011;10426;49.420;8.390;2023-04-15T07:54:02;5.18;;;4.78;;
20535;SDS011;10426;49.420;8.390;2023-04-15T07:56:29;7.10;;;5.40;;
20535;SDS011;10426;49.420;8.390;2023-04-15T07:58:56;5.55;;;4.93;;
20535;SDS011;10426;49.420;8.390;2023-04-15T08:01:24;5.97;;;5.20;;
20535;SDS011;10426;49.420;8.390;2023-04-15T08:03:51;7.82;;;5.78;;
20535;SDS011;10426;49.420;8.390;2023-04-15T08:06:18;6.75;;;5.30;;
20535;SDS011;10426;49.420;8.390;2023-04-15T08:08:44;6.22;;;5.20;;
20535;SDS011;10426;49.420;8.390;2023-04-15T08:11:11;8.30;;;5.97;;
20535;SDS011;10426;49.420;8.390;2023-04-15T08:13:38;6.82;;;5.90;;
20535;SDS011;10426;49.420;8.390;2023-04-15T08:16:12;6.68;;;5.80;;
20535;SDS011;10426;49.420;8.390;2023-04-15T08:18:41;15.05;;;7.00;;
20535;SDS011;10426;49.420;8.390;2023-04-15T08:21:07;9.13;;;5.90;;
20535;SDS011;10426;49.420;8.390;2023-04-15T08:23:34;7.53;;;6.00;;
20535;SDS011;10426;49.420;8.390;2023-04-15T08:26:01;6.78;;;5.88;;
20535;SDS011;10426;49.420;8.390;2023-04-15T08:28:28;6.57;;;5.67;;
20535;SDS011;10426;49.420;8.390;2023-04-15T08:30:54;6.53;;;5.87;;
20535;SDS011;10426;49.420;8.390;2023-04-15T08:33:21;8.80;;;6.07;;
20535;SDS011;10426;49.420;8.390;2023-04-15T08:35:49;7.95;;;6.07;;
20535;SDS011;10426;49.420;8.390;2023-04-15T08:38:16;8.52;;;5.57;;
20535;SDS011;10426;49.420;8.390;2023-04-15T08:40:43;5.90;;;5.30;;
20535;SDS011;10426;49.420;8.390;2023-04-15T08:43:11;6.43;;;5.28;;
20535;SDS011;10426;49.420;8.390;2023-04-15T08:45:38;36.42;;;9.32;;
20535;SDS011;10426;49.420;8.390;2023-04-15T08:48:05;11.07;;;5.57;;
20535;SDS011;10426;49.420;8.390;2023-04-15T08:50:33;8.18;;;5.15;;
20535;SDS011;10426;49.420;8.390;2023-04-15T08:53:01;6.35;;;5.40;;
20535;SDS011;10426;49.420;8.390;2023-04-15T08:55:28;5.68;;;5.05;;
20535;SDS011;10426;49.420;8.390;2023-04-15T08:57:55;6.88;;;5.03;;
20535;SDS011;10426;49.420;8.390;2023-04-15T09:00:22;5.05;;;4.65;;
20535;SDS011;10426;49.420;8.390;2023-04-15T09:02:49;5.68;;;5.00;;
20535;SDS011;10426;49.420;8.390;2023-04-15T09:05:16;7.03;;;5.00;;
20535;SDS011;10426;49.420;8.390;2023-04-15T09:07:43;5.33;;;4.83;;
20535;SDS011;10426;49.420;8.390;2023-04-15T09:10:11;5.60;;;4.57;;
20535;SDS011;10426;49.420;8.390;2023-04-15T09:12:38;5.77;;;4.20;;
20535;SDS011;10426;49.420;8.390;2023-04-15T09:15:05;5.00;;;4.43;;
20535;SDS011;10426;49.420;8.390;2023-04-15T09:17:32;4.90;;;4.30;;
20535;SDS011;10426;49.420;8.390;2023-04-15T09:20:08;5.95;;;4.18;;
20535;SDS011;10426;49.420;8.390;2023-04-15T09:22:35;4.85;;;4.22;;
20535;SDS011;10426;49.420;8.390;2023-04-15T09:25:02;4.80;;;4.30;;
20535;SDS011;10426;49.420;8.390;2023-04-15T09:27:30;5.13;;;4.28;;
20535;SDS011;10426;49.420;8.390;2023-04-15T09:30:01;4.15;;;3.75;;
20535;SDS011;10426;49.420;8.390;2023-04-15T09:32:28;5.53;;;4.25;;
20535;SDS011;10426;49.420;8.390;2023-04-15T09:34:55;4.43;;;3.97;;
20535;SDS011;10426;49.420;8.390;2023-04-15T09:37:30;4.95;;;4.18;;
20535;SDS011;10426;49.420;8.390;2023-04-15T09:39:59;5.38;;;4.60;;
20535;SDS011;10426;49.420;8.390;2023-04-15T09:42:26;4.78;;;4.38;;
20535;SDS011;10426;49.420;8.390;2023-04-15T09:44:54;4.30;;;3.90;;
20535;SDS011;10426;49.420;8.390;2023-04-15T09:47:25;4.15;;;3.75;;
20535;SDS011;10426;49.420;8.390;2023-04-15T09:49:54;4.22;;;3.83;;
20535;SDS011;10426;49.420;8.390;2023-04-15T09:52:20;5.55;;;3.75;;
20535;SDS011;10426;49.420;8.390;2023-04-15T09:54:47;3.97;;;3.33;;
20535;SDS011;10426;49.420;8.390;2023-04-15T09:57:13;3.77;;;3.30;;
20535;SDS011;10426;49.420;8.390;2023-04-15T09:59:40;3.95;;;3.63;;
20535;SDS011;10426;49.420;8.390;2023-04-15T10:02:08;5.13;;;3.42;;
20535;SDS011;10426;49.420;8.390;2023-04-15T10:04:39;4.45;;;3.65;;
20535;SDS011;10426;49.420;8.390;2023-04-15T10:07:06;3.63;;;3.33;;
20535;SDS011;10426;49.420;8.390;2023-04-15T10:09:34;3.60;;;3.30;;
20535;SDS011;10426;49.420;8.390;2023-04-15T10:12:01;4.30;;;3.90;;
20535;SDS011;10426;49.420;8.390;2023-04-15T10:14:30;4.70;;;4.18;;
20535;SDS011;10426;49.420;8.390;2023-04-15T10:16:57;8.63;;;3.72;;
20535;SDS011;10426;49.420;8.390;2023-04-15T10:19:28;3.70;;;3.40;;
20535;SDS011;10426;49.420;8.390;2023-04-15T10:21:56;5.68;;;3.58;;
20535;SDS011;10426;49.420;8.390;2023-04-15T10:24:23;4.18;;;3.75;;
20535;SDS011;10426;49.420;8.390;2023-04-15T10:26:50;7.13;;;6.15;;
20535;SDS011;10426;49.420;8.390;2023-04-15T10:29:17;4.97;;;4.35;;
20535;SDS011;10426;49.420;8.390;2023-04-15T10:31:44;5.15;;;4.00;;
20535;SDS011;10426;49.420;8.390;2023-04-15T10:34:11;4.65;;;3.05;;
20535;SDS011;10426;49.420;8.390;2023-04-15T10:36:41;4.00;;;3.50;;
20535;SDS011;10426;49.420;8.390;2023-04-15T10:41:58;3.90;;;3.50;;
20535;SDS011;10426;49.420;8.390;2023-04-15T10:44:31;4.80;;;3.53;;
20535;SDS011;10426;49.420;8.390;2023-04-15T10:46:58;4.40;;;3.53;;
20535;SDS011;10426;49.420;8.390;2023-04-15T10:49:25;4.05;;;3.72;;
20535;SDS011;10426;49.420;8.390;2023-04-15T10:51:56;4.15;;;3.85;;
20535;SDS011;10426;49.420;8.390;2023-04-15T10:54:29;4.32;;;3.92;;
20535;SDS011;10426;49.420;8.390;2023-04-15T10:57:06;3.90;;;3.40;;
20535;SDS011;10426;49.420;8.390;2023-04-15T10:59:35;4.20;;;3.60;;
20535;SDS011;10426;49.420;8.390;2023-04-15T11:02:02;4.05;;;3.25;;
20535;SDS011;10426;49.420;8.390;2023-04-15T11:07:16;3.92;;;3.20;;
20535;SDS011;10426;49.420;8.390;2023-04-15T11:09:58;3.08;;;2.88;;
20535;SDS011;10426;49.420;8.390;2023-04-15T11:12:32;3.25;;;2.85;;
20535;SDS011;10426;49.420;8.390;2023-04-15T11:14:59;4.78;;;2.92;;
20535;SDS011;10426;49.420;8.390;2023-04-15T11:17:26;3.10;;;2.90;;
20535;SDS011;10426;49.420;8.390;2023-04-15T11:19:53;3.95;;;2.58;;
20535;SDS011;10426;49.420;8.390;2023-04-15T11:22:21;2.70;;;2.50;;
20535;SDS011;10426;49.420;8.390;2023-04-15T11:24:48;2.83;;;2.60;;
20535;SDS011;10426;49.420;8.390;2023-04-15T11:27:19;3.10;;;2.80;;
20535;SDS011;10426;49.420;8.390;2023-04-15T11:29:46;3.30;;;3.10;;
20535;SDS011;10426;49.420;8.390;2023-04-15T11:32:13;4.57;;;2.80;;
20535;SDS011;10426;49.420;8.390;2023-04-15T11:34:39;3.00;;;2.80;;
20535;SDS011;10426;49.420;8.390;2023-04-15T11:37:06;3.20;;;2.83;;
20535;SDS011;10426;49.420;8.390;2023-04-15T11:39:34;3.03;;;2.80;;
20535;SDS011;10426;49.420;8.390;2023-04-15T11:42:02;3.05;;;2.72;;
20535;SDS011;10426;49.420;8.390;2023-04-15T11:44:29;3.45;;;3.10;;
20535;SDS011;10426;49.420;8.390;2023-04-15T11:46:55;3.53;;;3.10;;
20535;SDS011;10426;49.420;8.390;2023-04-15T11:49:25;3.35;;;2.80;;
20535;SDS011;10426;49.420;8.390;2023-04-15T11:51:52;3.03;;;2.70;;
20535;SDS011;10426;49.420;8.390;2023-04-15T11:54:18;3.22;;;3.03;;
20535;SDS011;10426;49.420;8.390;2023-04-15T11:56:50;3.72;;;2.90;;
20535;SDS011;10426;49.420;8.390;2023-04-15T11:59:17;8.23;;;2.60;;
20535;SDS011;10426;49.420;8.390;2023-04-15T12:01:43;4.10;;;2.70;;
20535;SDS011;10426;49.420;8.390;2023-04-15T12:04:12;2.67;;;2.45;;
20535;SDS011;10426;49.420;8.390;2023-04-15T12:06:39;2.67;;;2.45;;
20535;SDS011;10426;49.420;8.390;2023-04-15T12:09:09;3.10;;;2.47;;
20535;SDS011;10426;49.420;8.390;2023-04-15T12:11:37;2.97;;;2.67;;
20535;SDS011;10426;49.420;8.390;2023-04-15T12:14:07;2.78;;;2.40;;
20535;SDS011;10426;49.420;8.390;2023-04-15T12:16:35;2.65;;;2.40;;
20535;SDS011;10426;49.420;8.390;2023-04-15T12:19:03;2.55;;;2.35;;
20535;SDS011;10426;49.420;8.390;2023-04-15T12:21:32;2.50;;;2.30;;
20535;SDS011;10426;49.420;8.390;2023-04-15T12:24:01;2.47;;;2.20;;
20535;SDS011;10426;49.420;8.390;2023-04-15T12:26:29;3.25;;;2.10;;
20535;SDS011;10426;49.420;8.390;2023-04-15T12:28:59;2.17;;;1.97;;
20535;SDS011;10426;49.420;8.390;2023-04-15T12:31:27;3.47;;;2.10;;
20535;SDS011;10426;49.420;8.390;2023-04-15T12:33:54;2.63;;;1.90;;
20535;SDS011;10426;49.420;8.390;2023-04-15T12:36:21;2.10;;;2.00;;
20535;SDS011;10426;49.420;8.390;2023-04-15T12:38:48;1.95;;;1.83;;
20535;SDS011;10426;49.420;8.390;2023-04-15T12:41:15;2.60;;;2.10;;
20535;SDS011;10426;49.420;8.390;2023-04-15T12:43:43;3.15;;;2.00;;
20535;SDS011;10426;49.420;8.390;2023-04-15T12:46:09;3.50;;;1.98;;
20535;SDS011;10426;49.420;8.390;2023-04-15T12:48:37;2.25;;;2.05;;
20535;SDS011;10426;49.420;8.390;2023-04-15T12:51:04;2.50;;;2.00;;
20535;SDS011;10426;49.420;8.390;2023-04-15T12:53:31;2.35;;;1.90;;
20535;SDS011;10426;49.420;8.390;2023-04-15T12:55:57;6.55;;;2.00;;
20535;SDS011;10426;49.420;8.390;2023-04-15T12:58:24;1.90;;;1.60;;
20535;SDS011;10426;49.420;8.390;2023-04-15T13:00:50;2.47;;;1.30;;
20535;SDS011;10426;49.420;8.390;2023-04-15T13:03:17;1.93;;;1.30;;
20535;SDS011;10426;49.420;8.390;2023-04-15T13:05:45;4.53;;;1.30;;
20535;SDS011;10426;49.420;8.390;2023-04-15T13:08:12;1.58;;;1.10;;
20535;SDS011;10426;49.420;8.390;2023-04-15T13:10:38;1.15;;;1.00;;
20535;SDS011;10426;49.420;8.390;2023-04-15T13:13:06;2.10;;;1.10;;
20535;SDS011;10426;49.420;8.390;2023-04-15T13:15:33;1.00;;;0.88;;
20535;SDS011;10426;49.420;8.390;2023-04-15T13:18:00;1.20;;;1.00;;
20535;SDS011;10426;49.420;8.390;2023-04-15T13:20:27;1.75;;;0.93;;
20535;SDS011;10426;49.420;8.390;2023-04-15T13:22:55;1.40;;;0.90;;
20535;SDS011;10426;49.420;8.390;2023-04-15T13:25:21;2.45;;;1.10;;
20535;SDS011;10426;49.420;8.390;2023-04-15T13:27:48;1.90;;;0.90;;
20535;SDS011;10426;49.420;8.390;2023-04-15T13:30:15;1.40;;;0.90;;
20535;SDS011;10426;49.420;8.390;2023-04-15T13:32:41;1.10;;;0.82;;
20535;SDS011;10426;49.420;8.390;2023-04-15T13:35:08;0.85;;;0.82;;
20535;SDS011;10426;49.420;8.390;2023-04-15T13:37:35;1.75;;;1.02;;
20535;SDS011;10426;49.420;8.390;2023-04-15T13:40:03;1.13;;;0.85;;
20535;SDS011;10426;49.420;8.390;2023-04-15T13:42:31;0.73;;;0.73;;
20535;SDS011;10426;49.420;8.390;2023-04-15T13:44:58;0.80;;;0.80;;
20535;SDS011;10426;49.420;8.390;2023-04-15T13:47:24;0.60;;;0.60;;
20535;SDS011;10426;49.420;8.390;2023-04-15T13:49:51;2.90;;;0.50;;
20535;SDS011;10426;49.420;8.390;2023-04-15T13:52:20;0.50;;;0.50;;
20535;SDS011;10426;49.420;8.390;2023-04-15T13:54:47;0.60;;;0.60;;
20535;SDS011;10426;49.420;8.390;2023-04-15T13:57:15;0.60;;;0.60;;
20535;SDS011;10426;49.420;8.390;2023-04-15T13:59:41;1.23;;;0.60;;
20535;SDS011;10426;49.420;8.390;2023-04-15T14:02:09;1.10;;;0.70;;
20535;SDS011;10426;49.420;8.390;2023-04-15T14:04:35;0.70;;;0.60;;
20535;SDS011;10426;49.420;8.390;2023-04-15T14:07:02;0.63;;;0.63;;
20535;SDS011;10426;49.420;8.390;2023-04-15T14:09:29;1.80;;;0.80;;
20535;SDS011;10426;49.420;8.390;2023-04-15T14:11:55;1.30;;;0.90;;
20535;SDS011;10426;49.420;8.390;2023-04-15T14:14:24;1.80;;;0.80;;
20535;SDS011;10426;49.420;8.390;2023-04-15T14:16:51;0.85;;;0.85;;
20535;SDS011;10426;49.420;8.390;2023-04-15T14:19:17;1.00;;;0.75;;
20535;SDS011;10426;49.420;8.390;2023-04-15T14:21:44;1.42;;;0.70;;
20535;SDS011;10426;49.420;8.390;2023-04-15T14:24:11;0.70;;;0.70;;
20535;SDS011;10426;49.420;8.390;2023-04-15T14:26:37;0.60;;;0.60;;
20535;SDS011;10426;49.420;8.390;2023-04-15T14:29:04;1.40;;;0.50;;
20535;SDS011;10426;49.420;8.390;2023-04-15T14:31:32;2.53;;;0.80;;
20535;SDS011;10426;49.420;8.390;2023-04-15T14:33:59;1.60;;;1.00;;
20535;SDS011;10426;49.420;8.390;2023-04-15T14:36:25;1.00;;;0.90;;
20535;SDS011;10426;49.420;8.390;2023-04-15T14:38:52;1.02;;;1.02;;
20535;SDS011;10426;49.420;8.390;2023-04-15T14:41:19;0.90;;;0.90;;
20535;SDS011;10426;49.420;8.390;2023-04-15T14:43:46;1.23;;;1.17;;
20535;SDS011;10426;49.420;8.390;2023-04-15T14:46:13;1.10;;;1.10;;
20535;SDS011;10426;49.420;8.390;2023-04-15T14:48:41;1.25;;;1.20;;
20535;SDS011;10426;49.420;8.390;2023-04-15T14:51:07;2.80;;;1.20;;
20535;SDS011;10426;49.420;8.390;2023-04-15T14:53:34;1.30;;;1.05;;